Nearby METAR Reports

 

KSJC - San Jose, California, USA
Distance from station: NE 14km
Actualización: 13/11/2019 06:53
Parcialmente nuboso
Parcialmente nuboso
 Viento del O
Viento: O 7 km/h
Temperatura: 15°C
Rocío: 9°C
Humedad: 68%
Barómetro: 1016.6 hPa
Clouds: Parcialmente nuboso
Visibility: 16 km
Cloud details: Few Clouds 1067 m
Few Clouds 2743 m
Parcialmente nuboso 5486 m
2019/11/13 05:53 KSJC 130553Z 27004KT 10SM FEW035 FEW090 SCT180 15/09 A3002 RMK AO2 SLP165 T01500089 10228 20150 53008
KNUQ - Moffett Nas/Mtn, California, USA
Distance from station: N 14km
Actualización: 13/11/2019 06:56

 
Barómetro: 1016.9 hPa
2019/11/13 05:56 KNUQ 130556Z A3003 RMK AO2 SLP173 53007 PWINO $
 
KPAO - Palo Alto, California, USA
Distance from station: NNO 23km
Actualización: 13/11/2019 05:47
NOT Current
Despejado
Despejado
 Viento del NO
Viento: NO 7 km/h
Temperatura: 12°C
Rocío: 8°C
Humedad: 77%
Barómetro: 1016.3 hPa
Clouds: Despejado
Visibility: 16 km
2019/11/13 04:47 KPAO 130447Z 31004KT 10SM SKC 12/08 A3001 RMK LAST
KRHV - San Jose/Reid, California, USA
Distance from station: ENE 19km
Actualización: 13/11/2019 06:47
Few Clouds
Few Clouds
 Viento del calm
Viento: Calma
Temperatura: 14°C
Rocío: 8°C
Humedad: 67%
Barómetro: 1016.9 hPa
Clouds: Few Clouds
Visibility: 16 km
Cloud details: Few Clouds 4572 m
2019/11/13 05:47 KRHV 130547Z 00000KT 10SM FEW150 14/08 A3003 RMK LAST
 
KOAK - Oakland, California, USA
Distance from station: NNO 50km
Actualización: 13/11/2019 06:53
Few Clouds
Few Clouds
 Viento del NO
Viento: NO 6 km/h
Temperatura: 13°C
Rocío: 9°C
Humedad: 77%
Barómetro: 1017.3 hPa
Clouds: Few Clouds
Visibility: 16 km
Cloud details: Few Clouds 6096 m
2019/11/13 05:53 KOAK 130553Z 32003KT 10SM FEW200 13/09 A3004 RMK AO2 SLP171 T01330094 10222 20128 53010
KSQL - San Carlos Airpo, California, USA
Distance from station: NO 34km
Actualización: 13/11/2019 07:35
Despejado
Despejado
 Viento del calm
Viento: Calma
Temperatura: 13°C
Rocío: 9°C
Humedad: 77%
Barómetro: 1016.9 hPa
Clouds: Despejado
Visibility: 16 km
2019/11/13 06:35 KSQL 130635Z AUTO 00000KT 10SM CLR 13/09 A3003 RMK AO2
 
KSFO - San Francisco, California, USA
Distance from station: NO 49km
Actualización: 13/11/2019 06:56
Few Clouds
Few Clouds
 Viento del ONO
Viento: ONO 13 km/h
Temperatura: 12°C
Rocío: 8°C
Humedad: 77%
Barómetro: 1016.6 hPa
Clouds: Few Clouds
Visibility: 16 km
Cloud details: Few Clouds 122 m
Few Clouds 6096 m
2019/11/13 05:56 KSFO 130556Z 29007KT 10SM FEW004 FEW200 12/08 A3002 RMK AO2 SLP165 T01170083 10211 20117 53009
KE16 - San Martin, California, USA
Distance from station: ESE 43km
Actualización: 13/11/2019 07:35
Despejado
Despejado
 Viento del calm
Viento: Calma
Temperatura: 10°C
Rocío: 9°C
Humedad: 94%
Barómetro: 1017.9 hPa
Clouds: Despejado
Visibility: 16 km
2019/11/13 06:35 KE16 130635Z AUTO 00000KT 10SM CLR 10/09 A3006 RMK AO2
 
KWVI - Watsonville, California, USA
Distance from station: SSE 44km
Actualización: 13/11/2019 06:53
Niebla, Cubierto
Niebla, Cubierto
 Viento del O
Viento: O 6 km/h
Temperatura: 11°C
Rocío: 10°C
Humedad: 94%
Barómetro: 1017.6 hPa
Resumen: Niebla
Clouds: Cubierto
Visibility: 0.4 km
Cloud details: Cubierto 61 m
2019/11/13 05:53 KWVI 130553Z AUTO 26003KT 1/4SM FG VV002 11/10 A3005 RMK AO2 SLP174 T01060100 10156 20106 53001
KHAF - Half Moon Bay, California, USA
Distance from station: ONO 50km
Actualización: 13/11/2019 07:35
Niebla, Cubierto
Niebla, Cubierto
 Viento del ENE
Viento: ENE 7 km/h
Temperatura: 9°C
Wind Chill: 8°C
Rocío: 9°C
Humedad: 100%
Barómetro: 1017.6 hPa
Resumen: Niebla
Clouds: Cubierto
Visibility: 0.4 km
Cloud details: Cubierto 61 m
2019/11/13 06:35 KHAF 130635Z AUTO 06004KT 1/4SM FG OVC002 09/09 A3005 RMK AO2
 
KHWD - Hayward, California, USA
Distance from station: N 44km
Actualización: 13/11/2019 06:54
Despejado
Despejado
 Viento del calm
Viento: Calma
Temperatura: 13°C
Rocío: 9°C
Humedad: 77%
Barómetro: 1016.6 hPa
Clouds: Despejado
Visibility: 14 km
2019/11/13 05:54 KHWD 130554Z AUTO 00000KT 9SM CLR 13/09 A3002 RMK AO2 SLP174 T01280089 10206 20128 53007
KLVK - Livermore, California, USA
Distance from station: NNE 51km
Actualización: 13/11/2019 06:53
Despejado
Despejado
 Viento del E
Viento: E 6 km/h
Temperatura: 12°C
Rocío: 4°C
Humedad: 58%
Barómetro: 1016.6 hPa
Clouds: Despejado
Visibility: 13 km
2019/11/13 05:53 KLVK 130553Z AUTO 08003KT 8SM CLR 12/04 A3002 RMK AO2 SLP164 T01220039 10233 20111 53008